Terminal Aerodrome Forecast
Issued by NWS Grand Forks, ND

Home | Current Version | Previous Version | Text Only | Print | Product List | Glossary On
Versions: 1 2 3 4 5 6 7 8 9 10 11 12 13 14 15 16 17
000
FTUS43 KFGF 261120
TAFFAR
TAF
KFAR 261120Z 2612/2712 VRB03KT P6SM VCTS SCT080CB
     FM261400 VRB03KT P6SM SCT250
     FM262300 02006KT P6SM VCTS SCT050CB
     FM270300 02007KT P6SM BKN250=

USA.gov is the U.S. government's official web portal to all federal, state and local government web resources and services.